Topia, North Carolina
Current Conditions -  °F | °C
As of 5:35 PM on Monday 20 Oct 2014 (Local Time) from KGEV Reporting Station
Scattered Clouds Scattered Clouds  
Wind Chill: 58°   Ceiling: Unl
Heat Index: 58°   Visibility: 10mi
Dew Point: 45°   Wind: 0mph
Humidity: 60%   Direction: NA
Pressure: 30.01"   Gusts: NA
Location:  36.4835°N, 81.3122°W
Report Text: KGEV 202135Z AUTO 00000KT 10SM SCT110 15/07 A3001 RMK AO2 T01460070
Loading
Personal Weather Stations






























Interactive Weather Map
Tropical Storm Tracking
New forecast layout! Learn more

10-Day Weather Forecast

Advertisements
Track Severe Weather on mobile